L'viv, Ukraine
Current Conditions -  °F | °C
As of 12:00 AM on Wednesday 22 Oct 2014 (Local Time) from UKLL Reporting Station
Moderate Fog Moderate Fog  
Wind Chill: 42°   Ceiling: 100
Heat Index: 45°   Visibility: 0.03mi
Dew Point: 45°   Wind: 4mph
Humidity: 100%   Direction: 190°S
Pressure: 29.74"   Gusts: NA
Location:  49.84°N, 24.03°E
Report Text: UKLL 212100Z 19002MPS 0050 R13/0300N FG VV001 07/07 Q1007 13CLRD80 NOSIG
Loading
Personal Weather Stations






























Interactive Weather Map
Tropical Storm Tracking
New forecast layout! Learn more

10-Day Weather Forecast

Advertisements
Track Severe Weather on mobile